createdAt,value
2018-05-10T00:01:39.590Z,8.20
2018-05-10T00:04:13.155Z,11.40
2018-05-10T00:06:46.536Z,7.30
2018-05-10T00:09:19.835Z,6.63
2018-05-10T00:11:52.413Z,8.77
2018-05-10T00:14:25.746Z,6.70
2018-05-10T00:16:59.142Z,9.73
2018-05-10T00:19:31.706Z,6.60
2018-05-10T00:22:05.001Z,6.97
2018-05-10T00:24:38.328Z,6.13
2018-05-10T00:27:11.063Z,5.90
2018-05-10T00:29:44.192Z,8.97
2018-05-10T00:32:17.609Z,6.60
2018-05-10T00:34:50.225Z,6.40
2018-05-10T00:37:22.987Z,6.77
2018-05-10T00:39:55.324Z,6.70
2018-05-10T00:42:28.727Z,7.37
2018-05-10T00:45:01.483Z,8.57
2018-05-10T00:47:34.009Z,6.87
2018-05-10T00:50:07.301Z,9.80
2018-05-10T00:52:39.788Z,8.27
2018-05-10T00:55:12.475Z,6.33
2018-05-10T00:57:45.248Z,7.33
2018-05-10T01:00:17.865Z,6.27
2018-05-10T01:02:51.339Z,6.20
2018-05-10T01:05:24.141Z,5.93
2018-05-10T01:07:57.065Z,12.50
2018-05-10T01:10:30.752Z,5.10
2018-05-10T01:13:03.441Z,5.63
2018-05-10T01:15:36.522Z,5.70
2018-05-10T01:18:09.399Z,11.50
2018-05-10T01:20:41.878Z,9.97
2018-05-10T01:23:15.176Z,5.83
2018-05-10T01:25:47.948Z,4.80
2018-05-10T01:28:21.933Z,10.43
2018-05-10T01:30:54.450Z,6.30
2018-05-10T01:33:26.973Z,4.60
2018-05-10T01:36:17.108Z,4.27
2018-05-10T01:38:51.111Z,4.33
2018-05-10T01:41:25.238Z,6.13
2018-05-10T01:43:58.735Z,4.40
2018-05-10T01:46:32.325Z,6.33
2018-05-10T01:49:04.995Z,6.47
2018-05-10T01:51:38.287Z,4.60
2018-05-10T01:54:12.111Z,4.07
2018-05-10T01:56:45.238Z,5.30
2018-05-10T01:59:18.203Z,5.70
2018-05-10T02:01:52.287Z,8.80
2018-05-10T02:04:25.270Z,4.80
2018-05-10T02:06:58.753Z,5.73
2018-05-10T02:09:31.439Z,5.20
2018-05-10T02:12:04.766Z,4.93
2018-05-10T02:14:38.055Z,4.90
2018-05-10T02:17:10.530Z,5.13
2018-05-10T02:19:43.763Z,5.50
2018-05-10T02:22:16.775Z,5.03
2018-05-10T02:24:50.940Z,5.77
2018-05-10T02:27:23.499Z,8.13
2018-05-10T02:29:55.972Z,5.90
2018-05-10T02:32:29.415Z,6.13
2018-05-10T02:35:02.080Z,5.17
2018-05-10T02:37:36.439Z,5.67
2018-05-10T02:40:09.749Z,6.03
2018-05-10T02:42:43.133Z,4.67
2018-05-10T02:45:15.563Z,4.53
2018-05-10T02:47:48.098Z,6.00
2018-05-10T02:50:21.518Z,4.57
2018-05-10T02:52:54.669Z,7.10
2018-05-10T02:55:27.285Z,6.27
2018-05-10T02:57:59.873Z,3.80
2018-05-10T03:00:32.349Z,4.60
2018-05-10T03:03:04.934Z,6.70
2018-05-10T03:05:37.414Z,5.40
2018-05-10T03:08:10.018Z,4.60
2018-05-10T03:10:43.351Z,4.70
2018-05-10T03:13:16.799Z,6.10
2018-05-10T03:15:49.602Z,4.90
2018-05-10T03:18:22.139Z,5.07
2018-05-10T03:20:54.653Z,4.40
2018-05-10T03:23:28.054Z,4.17
2018-05-10T03:26:00.970Z,5.47
2018-05-10T03:28:34.248Z,5.07
2018-05-10T03:31:07.177Z,6.00
2018-05-10T03:33:39.582Z,5.40
2018-05-10T03:36:12.075Z,4.43
2018-05-10T03:38:45.507Z,5.27
2018-05-10T03:41:18.011Z,5.03
2018-05-10T03:43:52.225Z,6.07
2018-05-10T03:46:24.989Z,13.40
2018-05-10T03:48:58.404Z,7.53
2018-05-10T03:51:31.665Z,6.70
2018-05-10T03:54:04.320Z,4.73
2018-05-10T03:56:36.776Z,4.60
2018-05-10T03:59:09.919Z,4.67
2018-05-10T04:01:43.321Z,5.50
2018-05-10T04:04:34.408Z,4.50
2018-05-10T04:07:25.934Z,6.90
2018-05-10T04:10:18.118Z,4.80
2018-05-10T04:12:50.666Z,5.10
2018-05-10T04:15:24.658Z,5.27
2018-05-10T04:17:58.715Z,4.47
2018-05-10T04:20:31.420Z,3.73
2018-05-10T04:23:04.198Z,9.03
2018-05-10T04:25:36.879Z,6.63
2018-05-10T04:28:09.467Z,5.03
2018-05-10T04:30:42.123Z,3.50
2018-05-10T04:33:15.378Z,4.90
2018-05-10T04:35:48.187Z,4.20
2018-05-10T04:38:21.564Z,5.13
2018-05-10T04:40:54.415Z,4.13
2018-05-10T04:43:27.770Z,3.73
2018-05-10T04:46:01.138Z,4.20
2018-05-10T04:48:33.832Z,3.80
2018-05-10T04:51:07.237Z,4.67
2018-05-10T04:53:40.653Z,4.10
2018-05-10T04:56:13.827Z,3.43
2018-05-10T04:58:46.527Z,4.20
2018-05-10T05:01:19.973Z,4.53
2018-05-10T05:03:53.197Z,10.20
2018-05-10T05:06:25.741Z,9.00
2018-05-10T05:08:58.256Z,5.57
2018-05-10T05:11:31.507Z,3.60
2018-05-10T05:14:03.994Z,4.30
2018-05-10T05:16:37.361Z,3.13
2018-05-10T05:19:10.336Z,5.73
2018-05-10T05:21:43.637Z,4.57
2018-05-10T05:24:17.016Z,6.63
2018-05-10T05:26:50.460Z,3.57
2018-05-10T05:29:23.197Z,6.00
2018-05-10T05:31:55.744Z,8.53
2018-05-10T05:34:28.463Z,3.93
2018-05-10T05:37:01.097Z,2.60
2018-05-10T05:39:33.710Z,4.30
2018-05-10T05:42:06.837Z,2.40
2018-05-10T05:44:39.885Z,2.13
2018-05-10T05:47:12.619Z,3.40
2018-05-10T05:49:45.396Z,4.33
2018-05-10T05:52:17.908Z,2.90
2018-05-10T05:54:50.452Z,2.73
2018-05-10T05:57:23.685Z,3.50
2018-05-10T05:59:57.843Z,2.20
2018-05-10T06:02:31.205Z,4.00
2018-05-10T06:05:04.858Z,2.80
2018-05-10T06:07:37.323Z,3.17
2018-05-10T06:10:09.799Z,5.10
2018-05-10T06:12:42.251Z,1.90
2018-05-10T06:15:14.979Z,2.33
2018-05-10T06:17:49.000Z,2.80
2018-05-10T06:20:21.806Z,2.40
2018-05-10T06:22:54.248Z,2.73
2018-05-10T06:25:26.669Z,2.80
2018-05-10T06:28:00.727Z,2.37
2018-05-10T06:30:34.225Z,3.33
2018-05-10T06:33:07.340Z,3.00
2018-05-10T06:35:39.783Z,3.00
2018-05-10T06:38:12.279Z,5.90
2018-05-10T06:40:46.298Z,2.10
2018-05-10T06:43:19.861Z,4.37
2018-05-10T06:45:53.384Z,2.30
2018-05-10T06:48:26.787Z,2.90
2018-05-10T06:51:00.140Z,1.97
2018-05-10T06:53:32.721Z,2.10
2018-05-10T06:56:05.437Z,2.17
2018-05-10T06:58:39.503Z,2.87
2018-05-10T07:01:13.055Z,1.93
2018-05-10T07:03:45.903Z,2.33
2018-05-10T07:06:18.578Z,2.10
2018-05-10T07:08:52.715Z,1.80
2018-05-10T07:11:25.491Z,2.30
2018-05-10T07:14:05.838Z,3.53
2018-05-10T07:16:38.472Z,5.03
2018-05-10T07:19:12.620Z,1.70
2018-05-10T07:21:46.666Z,1.87
2018-05-10T07:24:19.982Z,3.33
2018-05-10T07:26:53.317Z,3.23
2018-05-10T07:29:26.037Z,2.13
2018-05-10T07:31:58.661Z,6.43
2018-05-10T07:34:32.729Z,2.00
2018-05-10T07:37:05.136Z,2.30
2018-05-10T07:39:37.598Z,1.93
2018-05-10T07:42:11.214Z,2.40
2018-05-10T07:44:44.273Z,2.37
2018-05-10T07:47:17.411Z,2.10
2018-05-10T07:49:49.704Z,2.73
2018-05-10T07:52:22.447Z,4.60
2018-05-10T07:54:56.588Z,3.97
2018-05-10T07:57:30.124Z,3.40
2018-05-10T08:00:02.926Z,3.10
2018-05-10T08:02:35.459Z,2.87
2018-05-10T08:05:08.250Z,4.90
2018-05-10T08:07:40.967Z,2.60
2018-05-10T08:10:13.379Z,2.67
2018-05-10T08:12:46.056Z,4.40
2018-05-10T08:15:18.565Z,4.00
2018-05-10T08:17:50.932Z,2.73
2018-05-10T08:20:24.344Z,3.03
2018-05-10T08:22:57.067Z,4.40
2018-05-10T08:25:30.284Z,3.93
2018-05-10T08:28:04.323Z,5.93
2018-05-10T08:30:37.009Z,4.97
2018-05-10T08:33:09.381Z,4.83
2018-05-10T08:35:41.841Z,3.47
2018-05-10T08:38:14.317Z,3.30
2018-05-10T08:40:46.757Z,3.87
2018-05-10T08:43:20.069Z,3.67
2018-05-10T08:45:52.453Z,4.30
2018-05-10T08:48:26.645Z,4.60
2018-05-10T08:51:00.258Z,5.43
2018-05-10T08:53:32.734Z,3.93
2018-05-10T08:56:05.269Z,2.90
2018-05-10T08:58:38.634Z,4.13
2018-05-10T09:01:11.311Z,5.27
2018-05-10T09:03:43.678Z,2.63
2018-05-10T09:06:16.942Z,2.97
2018-05-10T09:08:49.601Z,3.80
2018-05-10T09:11:21.989Z,5.57
2018-05-10T09:13:56.009Z,2.77
2018-05-10T09:16:28.661Z,5.03
2018-05-10T09:19:01.155Z,4.63
2018-05-10T09:21:33.562Z,3.27
2018-05-10T09:24:08.918Z,7.50
2018-05-10T09:26:42.660Z,2.77
2018-05-10T09:29:15.288Z,2.93
2018-05-10T09:31:48.485Z,4.60
2018-05-10T09:34:21.003Z,2.57
2018-05-10T09:36:56.199Z,3.60
2018-05-10T09:39:28.932Z,3.53
2018-05-10T09:42:02.385Z,2.30
2018-05-10T09:44:35.607Z,7.00
2018-05-10T09:47:08.184Z,1.83
2018-05-10T09:49:40.709Z,1.90
2018-05-10T09:52:13.920Z,2.03
2018-05-10T09:54:46.338Z,2.30
2018-05-10T09:57:19.707Z,2.13
2018-05-10T09:59:52.954Z,4.50
2018-05-10T10:02:25.606Z,2.53
2018-05-10T10:04:58.151Z,5.03
2018-05-10T10:07:41.341Z,2.20
2018-05-10T10:10:14.407Z,2.70
2018-05-10T10:12:46.825Z,3.03
2018-05-10T10:15:19.525Z,2.27
2018-05-10T10:17:52.037Z,2.57
2018-05-10T10:20:24.626Z,3.13
2018-05-10T10:22:57.080Z,2.40
2018-05-10T10:25:29.536Z,2.67
2018-05-10T10:31:11.226Z,3.90
2018-05-10T10:33:43.748Z,4.03
2018-05-10T10:36:16.538Z,2.60
2018-05-10T10:38:49.661Z,2.27
2018-05-10T10:41:23.356Z,2.93
2018-05-10T10:43:55.885Z,3.63
2018-05-10T10:46:28.433Z,5.17
2018-05-10T10:49:01.871Z,2.37
2018-05-10T10:51:34.330Z,2.43
2018-05-10T10:54:07.609Z,2.60
2018-05-10T10:56:41.769Z,2.60
2018-05-10T10:59:15.307Z,3.07
2018-05-10T11:01:47.983Z,3.07
2018-05-10T11:04:21.331Z,5.70
2018-05-10T11:06:54.492Z,4.60
2018-05-10T11:09:27.038Z,2.87
2018-05-10T11:11:59.471Z,7.37
2018-05-10T11:14:32.958Z,3.80
2018-05-10T11:17:06.262Z,2.90
2018-05-10T11:19:38.893Z,2.80
2018-05-10T11:22:11.765Z,3.83
2018-05-10T11:24:44.333Z,3.33
2018-05-10T11:27:17.634Z,3.80
2018-05-10T11:29:51.550Z,10.47
2018-05-10T11:32:24.187Z,3.10
2018-05-10T11:34:56.580Z,6.40
2018-05-10T11:37:29.226Z,6.20
2018-05-10T11:40:01.742Z,8.40
2018-05-10T11:42:35.953Z,6.90
2018-05-10T11:45:08.624Z,4.10
2018-05-10T11:47:41.270Z,4.50
2018-05-10T11:50:15.366Z,2.90
2018-05-10T11:52:48.236Z,2.33
2018-05-10T11:55:20.592Z,3.43
2018-05-10T11:57:53.865Z,2.20
2018-05-10T12:00:26.509Z,5.20
2018-05-10T12:02:59.062Z,6.90
2018-05-10T12:05:32.356Z,4.30
2018-05-10T12:08:06.509Z,7.77
2018-05-10T12:10:39.132Z,3.27
2018-05-10T12:13:11.629Z,4.53
2018-05-10T12:15:44.986Z,4.13
2018-05-10T12:18:17.321Z,9.67
2018-05-10T12:20:50.695Z,5.13
2018-05-10T12:23:23.150Z,3.50
2018-05-10T12:25:55.527Z,6.13
2018-05-10T12:28:29.592Z,10.00
2018-05-10T12:31:02.521Z,11.60
2018-05-10T12:33:35.709Z,9.40
2018-05-10T12:36:08.236Z,11.63
2018-05-10T12:38:40.870Z,9.73
2018-05-10T12:41:14.293Z,5.20
2018-05-10T12:43:47.731Z,5.67
2018-05-10T12:46:20.549Z,5.20
2018-05-10T12:48:54.009Z,4.70
2018-05-10T12:51:26.715Z,7.53
2018-05-10T12:54:00.092Z,7.77
2018-05-10T12:56:33.031Z,2.73
2018-05-10T12:59:06.289Z,9.27
2018-05-10T13:01:38.997Z,4.33
2018-05-10T13:04:11.593Z,3.80
2018-05-10T13:06:44.132Z,3.70
2018-05-10T13:09:18.197Z,4.07
2018-05-10T13:11:50.937Z,3.27
2018-05-10T13:14:24.373Z,8.87
2018-05-10T13:16:57.694Z,4.13
2018-05-10T13:19:31.039Z,4.00
2018-05-10T13:22:04.390Z,3.13
2018-05-10T13:24:37.001Z,4.10
2018-05-10T13:27:10.214Z,3.43
2018-05-10T13:29:42.887Z,3.10
2018-05-10T13:32:16.176Z,2.60
2018-05-10T13:34:48.539Z,10.73
2018-05-10T13:37:21.764Z,2.90
2018-05-10T13:39:54.550Z,2.77
2018-05-10T13:42:27.439Z,4.90
2018-05-10T13:45:00.407Z,3.10
2018-05-10T13:47:33.046Z,4.13
2018-05-10T13:50:05.711Z,3.40
2018-05-10T13:52:38.330Z,4.27
2018-05-10T13:55:11.151Z,3.63
2018-05-10T13:57:44.389Z,2.50
2018-05-10T14:00:18.201Z,2.63
2018-05-10T14:02:50.943Z,3.23
2018-05-10T14:05:24.174Z,4.87
2018-05-10T14:07:57.218Z,2.50
2018-05-10T14:10:29.963Z,2.80
2018-05-10T14:13:02.772Z,2.23
2018-05-10T14:15:36.914Z,2.80
2018-05-10T14:18:09.575Z,2.57
2018-05-10T14:20:43.114Z,2.40
2018-05-10T14:23:16.369Z,3.57
2018-05-10T14:25:49.635Z,3.67
2018-05-10T14:28:23.619Z,2.60
2018-05-10T14:30:57.037Z,2.40
2018-05-10T14:33:30.436Z,2.13
2018-05-10T14:36:02.894Z,2.20
2018-05-10T14:38:36.225Z,2.90
2018-05-10T14:41:10.433Z,2.87
2018-05-10T14:43:43.663Z,2.20
2018-05-10T14:46:17.230Z,2.00
2018-05-10T14:48:49.748Z,1.90
2018-05-10T14:51:22.367Z,2.33
2018-05-10T14:53:56.343Z,1.73
2018-05-10T14:56:29.185Z,1.97
2018-05-10T14:59:01.669Z,3.50
2018-05-10T15:01:34.479Z,2.53
2018-05-10T15:04:07.083Z,1.90
2018-05-10T15:06:39.517Z,2.60
2018-05-10T15:09:12.137Z,3.90
2018-05-10T15:11:45.131Z,1.60
2018-05-10T15:14:18.318Z,2.90
2018-05-10T15:16:51.329Z,2.97
2018-05-10T15:19:24.737Z,2.30
2018-05-10T15:21:59.269Z,1.80
2018-05-10T15:24:32.151Z,2.03
2018-05-10T15:27:05.457Z,1.80
2018-05-10T15:29:38.067Z,2.80
2018-05-10T15:32:10.674Z,1.90
2018-05-10T15:34:44.312Z,2.20
2018-05-10T15:37:17.569Z,3.93
2018-05-10T15:39:49.998Z,6.90
2018-05-10T15:42:23.208Z,1.60
2018-05-10T15:44:55.839Z,3.80
2018-05-10T15:47:28.371Z,3.20
2018-05-10T15:50:02.539Z,2.73
2018-05-10T15:52:35.329Z,3.07
2018-05-10T15:55:08.593Z,1.67
2018-05-10T15:57:41.090Z,1.83
2018-05-10T16:00:14.384Z,4.97
2018-05-10T16:02:47.662Z,1.67
2018-05-10T16:05:20.285Z,3.20
2018-05-10T16:07:52.730Z,4.60
2018-05-10T16:10:26.799Z,1.80
2018-05-10T16:12:59.972Z,4.70
2018-05-10T16:15:32.378Z,1.50
2018-05-10T16:18:05.152Z,3.40
2018-05-10T16:20:38.258Z,2.17
2018-05-10T16:23:11.754Z,6.17
2018-05-10T16:25:44.333Z,1.67
2018-05-10T16:28:17.581Z,2.00
2018-05-10T16:30:50.104Z,1.53
2018-05-10T16:33:22.712Z,1.90
2018-05-10T16:35:55.127Z,1.80
2018-05-10T16:38:28.600Z,1.57
2018-05-10T16:41:02.608Z,1.50
2018-05-10T16:43:35.149Z,1.67
2018-05-10T16:46:08.431Z,7.23
2018-05-10T16:48:41.697Z,1.73
2018-05-10T16:51:14.329Z,2.73
2018-05-10T16:53:46.689Z,2.10
2018-05-10T16:56:19.254Z,2.23
2018-05-10T16:58:51.762Z,1.63
2018-05-10T17:01:24.126Z,1.90
2018-05-10T17:03:57.389Z,1.70
2018-05-10T17:06:29.832Z,1.50
2018-05-10T17:09:02.257Z,1.57
2018-05-10T17:11:35.616Z,1.60
2018-05-10T17:14:08.104Z,2.07
2018-05-10T17:16:40.584Z,3.03
2018-05-10T17:19:13.788Z,1.70
2018-05-10T17:21:46.609Z,1.30
2018-05-10T17:24:19.993Z,1.90
2018-05-10T17:26:52.680Z,1.40
2018-05-10T17:29:25.897Z,1.53
2018-05-10T17:31:59.456Z,1.20
2018-05-10T17:34:32.366Z,1.20
2018-05-10T17:37:05.778Z,1.87
2018-05-10T17:39:38.647Z,3.03
2018-05-10T17:42:12.036Z,1.57
2018-05-10T17:44:44.611Z,3.07
2018-05-10T17:47:17.236Z,2.10
2018-05-10T17:49:50.534Z,1.50
2018-05-10T17:52:24.032Z,1.40
2018-05-10T17:54:57.177Z,2.03
2018-05-10T17:57:30.495Z,1.70
2018-05-10T18:00:03.111Z,1.60
2018-05-10T18:02:35.632Z,1.70
2018-05-10T18:05:08.163Z,2.00
2018-05-10T18:07:41.527Z,1.57
2018-05-10T18:10:14.196Z,3.13
2018-05-10T18:12:47.517Z,2.53
2018-05-10T18:15:20.695Z,1.50
2018-05-10T18:17:54.169Z,1.83
2018-05-10T18:20:26.953Z,1.90
2018-05-10T18:22:59.373Z,1.83
2018-05-10T18:25:31.822Z,1.70
2018-05-10T18:28:05.329Z,1.90
2018-05-10T18:30:37.776Z,1.90
2018-05-10T18:33:11.901Z,1.80
2018-05-10T18:35:44.699Z,1.80
2018-05-10T18:38:17.758Z,1.80
2018-05-10T18:40:52.128Z,2.17
2018-05-10T18:43:26.155Z,1.83
2018-05-10T18:45:58.867Z,1.33
2018-05-10T18:48:32.294Z,1.90
2018-05-10T18:51:05.373Z,1.80
2018-05-10T18:53:39.725Z,2.07
2018-05-10T18:56:12.192Z,2.30
2018-05-10T18:58:46.170Z,2.27
2018-05-10T19:01:20.051Z,2.10
2018-05-10T19:03:52.820Z,1.70
2018-05-10T19:06:26.309Z,1.80
2018-05-10T19:09:00.427Z,1.70
2018-05-10T19:11:34.328Z,2.83
2018-05-10T19:14:09.227Z,2.43
2018-05-10T19:16:42.762Z,2.60
2018-05-10T19:19:16.619Z,2.67
2018-05-10T19:21:52.020Z,4.33
2018-05-10T19:24:26.427Z,4.20
2018-05-10T19:27:00.067Z,4.30
2018-05-10T19:29:35.732Z,4.50
2018-05-10T19:32:10.357Z,10.57
2018-05-10T19:34:44.790Z,6.57
2018-05-10T19:37:19.203Z,6.00
2018-05-10T19:39:54.562Z,5.43
2018-05-10T19:42:28.418Z,7.87
2018-05-10T19:45:03.134Z,4.20
2018-05-10T19:47:38.198Z,3.73
2018-05-10T19:50:12.347Z,4.57
2018-05-10T19:52:46.685Z,3.77
2018-05-10T19:55:21.211Z,4.97
2018-05-10T19:57:55.748Z,3.80
2018-05-10T20:00:29.940Z,2.73
2018-05-10T20:03:03.631Z,4.80
2018-05-10T20:05:36.211Z,6.47
2018-05-10T20:08:10.107Z,6.93
2018-05-10T20:10:43.161Z,4.13
2018-05-10T20:13:16.439Z,8.30
2018-05-10T20:15:48.906Z,6.73
2018-05-10T20:18:22.122Z,4.67
2018-05-10T20:20:55.536Z,4.40
2018-05-10T20:23:27.955Z,4.70
2018-05-10T20:26:01.328Z,5.70
2018-05-10T20:28:34.721Z,7.93
2018-05-10T20:31:07.165Z,5.70
2018-05-10T20:33:40.441Z,4.30
2018-05-10T20:36:13.015Z,6.23
2018-05-10T20:38:46.433Z,7.27
2018-05-10T20:41:19.681Z,10.10
2018-05-10T20:43:52.519Z,8.23
2018-05-10T20:46:25.929Z,6.80
2018-05-10T20:48:58.228Z,8.17
2018-05-10T20:51:30.771Z,7.03
2018-05-10T20:54:03.378Z,7.93
2018-05-10T20:56:35.971Z,5.93
2018-05-10T20:59:08.626Z,6.13
2018-05-10T21:01:41.953Z,9.73
2018-05-10T21:04:15.578Z,7.27
2018-05-10T21:06:49.062Z,10.40
2018-05-10T21:09:21.615Z,10.90
2018-05-10T21:11:54.889Z,11.20
2018-05-10T21:14:27.563Z,9.37
2018-05-10T21:16:59.980Z,6.63
2018-05-10T21:19:32.460Z,8.40
2018-05-10T21:22:04.906Z,10.13
2018-05-10T21:24:37.313Z,6.77
2018-05-10T21:27:09.763Z,14.17
2018-05-10T21:29:43.744Z,11.77
2018-05-10T21:32:16.642Z,9.00
2018-05-10T21:34:49.987Z,10.53
2018-05-10T21:37:22.541Z,7.87
2018-05-10T21:39:54.989Z,8.50
2018-05-10T21:42:27.556Z,7.10
2018-05-10T21:45:00.043Z,8.20
2018-05-10T21:47:33.262Z,11.90
2018-05-10T21:50:06.784Z,9.50
2018-05-10T21:52:40.063Z,10.77
2018-05-10T21:55:12.683Z,10.10
2018-05-10T21:57:45.146Z,11.37
2018-05-10T22:00:17.618Z,7.90
2018-05-10T22:02:50.201Z,12.13
2018-05-10T22:05:23.584Z,10.03
2018-05-10T22:07:56.347Z,14.07
2018-05-10T22:10:28.816Z,13.83
2018-05-10T22:13:01.513Z,10.00
2018-05-10T22:15:34.975Z,6.97
2018-05-10T22:18:07.664Z,14.20
2018-05-10T22:20:41.007Z,12.60
2018-05-10T22:23:13.667Z,8.90
2018-05-10T22:25:46.938Z,9.50
2018-05-10T22:28:19.435Z,9.77
2018-05-10T22:30:51.984Z,6.40
2018-05-10T22:33:24.609Z,8.00
2018-05-10T22:35:58.080Z,11.50
2018-05-10T22:38:30.872Z,7.73
2018-05-10T22:41:03.382Z,12.87
2018-05-10T22:43:36.731Z,7.53
2018-05-10T22:46:09.275Z,8.23
2018-05-10T22:48:41.758Z,9.23
2018-05-10T22:51:14.156Z,6.07
2018-05-10T22:53:46.726Z,7.53
2018-05-10T22:56:20.750Z,6.60
2018-05-10T22:58:54.314Z,7.43
2018-05-10T23:01:26.848Z,8.00
2018-05-10T23:03:59.276Z,7.67
2018-05-10T23:06:31.673Z,8.30
2018-05-10T23:09:04.214Z,6.10
2018-05-10T23:11:37.835Z,6.13
2018-05-10T23:14:12.034Z,7.17
2018-05-10T23:16:44.763Z,5.93
2018-05-10T23:19:17.300Z,7.07
2018-05-10T23:21:50.470Z,5.03
2018-05-10T23:24:23.380Z,5.30
2018-05-10T23:26:56.688Z,7.57
2018-05-10T23:29:29.779Z,5.27
2018-05-10T23:32:02.207Z,4.53
2018-05-10T23:34:34.863Z,5.50
2018-05-10T23:37:07.435Z,4.80
2018-05-10T23:39:39.816Z,6.40
2018-05-10T23:42:12.438Z,5.53
2018-05-10T23:44:45.831Z,8.83
2018-05-10T23:47:18.564Z,5.67
2018-05-10T23:49:51.818Z,6.43
2018-05-10T23:52:24.482Z,7.20
2018-05-10T23:54:57.806Z,5.60
2018-05-10T23:57:31.049Z,6.00
